createdAt,value
2017-11-10T00:00:11.273Z,9.93
2017-11-10T00:02:39.283Z,8.52
2017-11-10T00:05:07.312Z,7.85
2017-11-10T00:07:35.329Z,9.43
2017-11-10T00:10:03.365Z,7.65
2017-11-10T00:12:32.152Z,9.95
2017-11-10T00:15:00.967Z,10.32
2017-11-10T00:17:29.743Z,8.95
2017-11-10T00:19:57.780Z,12.50
2017-11-10T00:22:25.812Z,10.13
2017-11-10T00:24:53.844Z,9.93
2017-11-10T00:27:21.856Z,14.18
2017-11-10T00:29:49.890Z,15.45
2017-11-10T00:32:17.920Z,14.93
2017-11-10T00:34:45.944Z,13.52
2017-11-10T00:37:14.754Z,10.25
2017-11-10T00:39:43.539Z,14.40
2017-11-10T00:42:12.343Z,13.80
2017-11-10T00:44:41.139Z,13.10
2017-11-10T00:47:10.045Z,16.65
2017-11-10T00:49:38.826Z,12.07
2017-11-10T00:52:06.864Z,12.80
2017-11-10T00:54:34.892Z,11.02
2017-11-10T00:57:02.929Z,13.38
2017-11-10T00:59:30.949Z,14.60
2017-11-10T01:01:58.997Z,13.45
2017-11-10T01:04:27.021Z,16.90
2017-11-10T01:06:55.065Z,14.32
2017-11-10T01:09:23.100Z,15.68
2017-11-10T01:11:51.909Z,13.50
2017-11-10T01:14:20.732Z,18.92
2017-11-10T01:16:48.752Z,15.27
2017-11-10T01:19:16.931Z,17.02
2017-11-10T01:21:45.794Z,13.32
2017-11-10T01:24:14.596Z,14.50
2017-11-10T01:26:43.381Z,17.25
2017-11-10T01:29:12.192Z,17.15
2017-11-10T01:31:40.977Z,18.77
2017-11-10T01:34:09.009Z,14.70
2017-11-10T01:36:37.036Z,22.98
2017-11-10T01:39:05.097Z,15.35
2017-11-10T01:41:33.126Z,19.35
2017-11-10T01:44:01.935Z,17.92
2017-11-10T01:46:30.720Z,18.02
2017-11-10T01:48:58.764Z,19.58
2017-11-10T01:51:26.788Z,19.75
2017-11-10T01:53:55.170Z,17.17
2017-11-10T01:56:23.178Z,15.40
2017-11-10T01:58:51.965Z,15.00
2017-11-10T02:03:54.397Z,14.45
2017-11-10T02:06:23.197Z,16.20
2017-11-10T02:08:51.984Z,17.40
2017-11-10T02:11:20.795Z,16.95
2017-11-10T02:13:49.587Z,18.00
2017-11-10T02:16:17.660Z,17.20
2017-11-10T02:18:45.689Z,19.45
2017-11-10T02:21:13.728Z,18.10
2017-11-10T02:23:41.752Z,15.93
2017-11-10T02:26:09.785Z,17.50
2017-11-10T02:28:37.825Z,18.05
2017-11-10T02:31:05.881Z,13.32
2017-11-10T02:33:33.914Z,16.62
2017-11-10T02:36:01.945Z,14.18
2017-11-10T02:38:30.813Z,20.80
2017-11-10T02:40:58.824Z,19.67
2017-11-10T02:43:27.671Z,14.27
2017-11-10T02:45:57.424Z,16.55
2017-11-10T02:48:25.461Z,16.90
2017-11-10T02:50:53.497Z,14.60
2017-11-10T02:53:21.539Z,20.67
2017-11-10T02:55:49.577Z,14.45
2017-11-10T02:58:18.399Z,12.77
2017-11-10T03:00:47.179Z,13.65
2017-11-10T03:03:15.224Z,13.95
2017-11-10T03:05:43.245Z,14.63
2017-11-10T03:08:11.289Z,14.10
2017-11-10T03:10:39.309Z,13.90
2017-11-10T03:13:07.384Z,16.80
2017-11-10T03:15:35.438Z,17.92
2017-11-10T03:18:03.488Z,17.95
2017-11-10T03:20:32.276Z,16.25
2017-11-10T03:23:01.088Z,20.23
2017-11-10T03:25:29.890Z,22.65
2017-11-10T03:27:58.692Z,20.42
2017-11-10T03:30:27.485Z,20.15
2017-11-10T03:32:56.480Z,19.75
2017-11-10T03:35:24.504Z,18.15
2017-11-10T03:37:52.544Z,23.70
2017-11-10T03:40:20.586Z,22.23
2017-11-10T03:42:48.605Z,20.33
2017-11-10T03:45:16.717Z,19.55
2017-11-10T03:47:45.507Z,23.05
2017-11-10T03:50:14.320Z,19.55
2017-11-10T03:52:43.116Z,18.48
2017-11-10T03:55:11.920Z,19.55
2017-11-10T03:57:40.730Z,24.12
2017-11-10T04:00:09.515Z,23.70
2017-11-10T04:02:38.304Z,25.80
2017-11-10T04:05:06.351Z,21.30
2017-11-10T04:07:34.380Z,24.70
2017-11-10T04:10:02.705Z,24.17
2017-11-10T04:12:30.753Z,22.45
2017-11-10T04:14:58.779Z,22.30
2017-11-10T04:17:26.843Z,26.15
2017-11-10T04:19:55.642Z,22.00
2017-11-10T04:22:23.668Z,19.17
2017-11-10T04:24:51.739Z,19.40
2017-11-10T04:27:19.747Z,22.90
2017-11-10T04:29:47.781Z,21.42
2017-11-10T04:32:15.823Z,23.42
2017-11-10T04:34:43.939Z,25.88
2017-11-10T04:37:12.752Z,19.60
2017-11-10T04:39:40.790Z,21.62
2017-11-10T04:42:08.833Z,21.45
2017-11-10T04:44:36.857Z,28.27
2017-11-10T04:47:04.892Z,22.92
2017-11-10T04:49:32.915Z,27.00
2017-11-10T04:52:00.984Z,20.67
2017-11-10T04:54:29.029Z,20.15
2017-11-10T04:56:57.832Z,22.55
2017-11-10T04:59:26.641Z,17.98
2017-11-10T05:01:54.663Z,21.65
2017-11-10T05:04:22.717Z,22.40
2017-11-10T05:06:50.736Z,23.20
2017-11-10T05:09:18.784Z,22.73
2017-11-10T05:11:46.817Z,21.60
2017-11-10T05:14:15.672Z,22.98
2017-11-10T05:16:43.701Z,16.58
2017-11-10T05:19:11.775Z,18.25
2017-11-10T05:21:39.791Z,15.00
2017-11-10T05:24:08.585Z,17.48
2017-11-10T05:26:36.615Z,18.77
2017-11-10T05:29:04.647Z,14.18
2017-11-10T05:31:32.692Z,15.55
2017-11-10T05:34:00.724Z,15.95
2017-11-10T05:36:29.537Z,21.98
2017-11-10T05:38:58.326Z,19.98
2017-11-10T05:41:27.143Z,16.55
2017-11-10T05:43:55.932Z,16.98
2017-11-10T05:46:23.991Z,14.63
2017-11-10T05:48:52.017Z,19.77
2017-11-10T05:51:20.056Z,12.43
2017-11-10T05:53:48.106Z,18.25
2017-11-10T05:56:16.156Z,16.50
2017-11-10T05:58:44.967Z,14.52
2017-11-10T06:01:12.988Z,17.10
2017-11-10T06:03:41.032Z,16.67
2017-11-10T06:06:09.061Z,17.35
2017-11-10T06:08:37.236Z,18.20
2017-11-10T06:11:05.277Z,15.73
2017-11-10T06:13:34.063Z,16.80
2017-11-10T06:16:02.104Z,15.18
2017-11-10T06:18:30.124Z,19.48
2017-11-10T06:20:58.176Z,16.20
2017-11-10T06:23:26.211Z,16.15
2017-11-10T06:25:55.041Z,16.12
2017-11-10T06:28:23.084Z,18.77
2017-11-10T06:30:51.104Z,16.20
2017-11-10T06:33:19.148Z,17.35
2017-11-10T06:35:47.168Z,15.88
2017-11-10T06:38:15.220Z,15.98
2017-11-10T06:40:43.246Z,15.02
2017-11-10T06:43:11.284Z,17.15
2017-11-10T06:45:39.309Z,18.73
2017-11-10T06:48:07.357Z,16.62
2017-11-10T06:50:35.391Z,19.25
2017-11-10T06:53:03.428Z,19.40
2017-11-10T06:55:32.236Z,20.45
2017-11-10T06:58:01.054Z,18.30
2017-11-10T07:00:29.076Z,16.65
2017-11-10T07:02:57.130Z,19.20
2017-11-10T07:05:25.147Z,15.80
2017-11-10T07:07:53.222Z,15.07
2017-11-10T07:10:21.236Z,17.42
2017-11-10T07:12:49.273Z,23.40
2017-11-10T07:15:17.368Z,17.75
2017-11-10T07:17:45.396Z,17.12
2017-11-10T07:20:14.211Z,17.00
2017-11-10T07:22:42.997Z,15.75
2017-11-10T07:25:11.796Z,15.00
2017-11-10T07:27:40.596Z,15.73
2017-11-10T07:30:08.767Z,12.90
2017-11-10T07:32:36.795Z,15.55
2017-11-10T07:35:05.573Z,15.00
2017-11-10T07:37:34.371Z,11.63
2017-11-10T07:40:03.157Z,18.65
2017-11-10T07:42:31.194Z,12.70
2017-11-10T07:44:59.249Z,13.23
2017-11-10T07:47:27.272Z,15.85
2017-11-10T07:49:55.301Z,12.18
2017-11-10T07:52:23.348Z,16.55
2017-11-10T07:54:51.421Z,13.50
2017-11-10T07:57:19.451Z,14.50
2017-11-10T07:59:47.471Z,14.00
2017-11-10T08:02:15.545Z,12.57
2017-11-10T08:04:44.327Z,19.85
2017-11-10T08:07:13.107Z,13.25
2017-11-10T08:09:41.151Z,14.00
2017-11-10T08:12:09.186Z,17.15
2017-11-10T08:14:37.278Z,17.30
2017-11-10T08:17:05.300Z,16.40
2017-11-10T08:19:33.348Z,16.00
2017-11-10T08:22:02.164Z,17.20
2017-11-10T08:24:30.972Z,16.27
2017-11-10T08:26:58.993Z,14.48
2017-11-10T08:29:27.032Z,16.87
2017-11-10T08:31:55.839Z,16.00
2017-11-10T08:34:23.879Z,17.80
2017-11-10T08:36:51.908Z,15.68
2017-11-10T08:39:20.722Z,14.57
2017-11-10T08:41:48.738Z,17.37
2017-11-10T08:44:16.763Z,13.95
2017-11-10T08:46:45.580Z,16.98
2017-11-10T08:49:14.360Z,17.48
2017-11-10T08:51:43.162Z,15.50
2017-11-10T08:54:11.949Z,13.05
2017-11-10T08:56:39.989Z,13.30
2017-11-10T08:59:08.019Z,13.00
2017-11-10T09:01:36.062Z,13.23
2017-11-10T09:04:04.078Z,16.00
2017-11-10T09:06:32.152Z,13.52
2017-11-10T09:09:00.177Z,11.85
2017-11-10T09:11:28.960Z,13.45
2017-11-10T09:13:57.776Z,14.02
2017-11-10T09:16:25.816Z,13.32
2017-11-10T09:18:53.858Z,14.30
2017-11-10T09:21:21.880Z,14.40
2017-11-10T09:23:49.964Z,15.43
2017-11-10T09:26:17.984Z,16.37
2017-11-10T09:28:50.501Z,19.27
2017-11-10T09:34:34.072Z,14.07
2017-11-10T09:37:07.687Z,14.73
2017-11-10T09:39:51.384Z,13.32
2017-11-10T09:42:25.534Z,14.80
2017-11-10T09:44:57.067Z,13.60
2017-11-10T09:47:30.705Z,15.75
2017-11-10T09:50:04.540Z,15.32
2017-11-10T09:52:38.312Z,17.15
2017-11-10T09:58:09.352Z,16.30
2017-11-10T10:00:43.904Z,17.37
2017-11-10T10:03:29.849Z,19.73
2017-11-10T10:06:03.873Z,18.77
2017-11-10T10:08:32.913Z,18.45
2017-11-10T10:11:02.436Z,17.25
2017-11-10T10:16:32.698Z,21.75
2017-11-10T10:19:20.501Z,21.42
2017-11-10T10:21:49.056Z,20.80
2017-11-10T10:24:17.082Z,16.80
2017-11-10T10:26:45.124Z,18.45
2017-11-10T10:29:13.148Z,18.33
2017-11-10T10:31:41.194Z,17.65
2017-11-10T10:34:10.244Z,16.98
2017-11-10T10:36:38.291Z,20.23
2017-11-10T10:39:06.304Z,17.58
2017-11-10T10:41:34.652Z,21.02
2017-11-10T10:44:02.680Z,20.33
2017-11-10T10:46:30.700Z,16.33
2017-11-10T10:48:58.748Z,17.55
2017-11-10T10:51:26.778Z,19.98
2017-11-10T10:53:54.825Z,19.83
2017-11-10T10:56:22.853Z,16.85
2017-11-10T10:58:50.897Z,18.73
2017-11-10T11:01:18.940Z,17.80
2017-11-10T11:03:47.756Z,19.58
2017-11-10T11:06:15.794Z,19.15
2017-11-10T11:08:43.845Z,17.33
2017-11-10T11:11:11.872Z,18.90
2017-11-10T11:13:39.938Z,21.27
2017-11-10T11:16:07.961Z,17.58
2017-11-10T11:18:36.032Z,15.70
2017-11-10T11:21:04.828Z,19.95
2017-11-10T11:23:32.963Z,18.62
2017-11-10T11:26:01.900Z,14.35
2017-11-10T11:28:29.919Z,17.42
2017-11-10T11:30:58.746Z,17.92
2017-11-10T11:33:26.756Z,17.30
2017-11-10T11:35:54.812Z,21.42
2017-11-10T11:38:22.849Z,16.83
2017-11-10T11:40:50.896Z,17.25
2017-11-10T11:43:18.916Z,15.25
2017-11-10T11:45:47.724Z,15.25
2017-11-10T11:48:16.527Z,17.33
2017-11-10T11:50:45.348Z,15.98
2017-11-10T11:53:14.136Z,14.30
2017-11-10T11:55:42.944Z,20.17
2017-11-10T11:58:10.974Z,16.23
2017-11-10T12:00:39.003Z,17.12
2017-11-10T12:06:39.919Z,14.98
2017-11-10T12:12:40.282Z,17.45
2017-11-10T12:15:09.080Z,16.55
2017-11-10T12:17:37.872Z,16.33
2017-11-10T12:20:06.696Z,16.23
2017-11-10T12:22:34.753Z,20.95
2017-11-10T12:25:02.801Z,14.43
2017-11-10T12:27:30.852Z,15.60
2017-11-10T12:29:58.947Z,12.70
2017-11-10T12:32:26.969Z,16.48
2017-11-10T12:37:54.808Z,16.83
2017-11-10T12:40:23.489Z,14.23
2017-11-10T12:43:17.817Z,15.68
2017-11-10T12:45:54.393Z,16.60
2017-11-10T12:48:58.787Z,16.48
2017-11-10T12:51:28.667Z,16.08
2017-11-10T12:56:50.756Z,19.17
2017-11-10T12:59:21.256Z,12.73
2017-11-10T13:01:51.221Z,14.10
2017-11-10T13:04:20.589Z,12.50
2017-11-10T13:06:48.644Z,12.60
2017-11-10T13:09:16.725Z,13.68
2017-11-10T13:11:46.789Z,14.45
2017-11-10T13:14:15.736Z,11.63
2017-11-10T13:16:47.164Z,12.37
2017-11-10T13:19:15.231Z,14.20
2017-11-10T13:21:43.271Z,13.23
2017-11-10T13:24:11.317Z,12.48
2017-11-10T13:26:39.364Z,14.98
2017-11-10T13:29:07.401Z,13.45
2017-11-10T13:31:36.224Z,12.98
2017-11-10T13:34:04.247Z,14.02
2017-11-10T13:36:32.300Z,15.40
2017-11-10T13:39:00.329Z,13.10
2017-11-10T13:41:28.543Z,10.95
2017-11-10T13:43:57.343Z,10.27
2017-11-10T13:46:26.151Z,12.63
2017-11-10T13:48:54.192Z,12.60
2017-11-10T13:51:22.358Z,10.63
2017-11-10T13:53:50.376Z,14.75
2017-11-10T13:56:18.432Z,11.85
2017-11-10T13:58:46.473Z,9.80
2017-11-10T14:01:15.256Z,11.77
2017-11-10T14:03:43.296Z,12.25
2017-11-10T14:06:11.328Z,9.80
2017-11-10T14:08:39.372Z,11.55
2017-11-10T14:11:07.408Z,10.32
2017-11-10T14:13:36.232Z,11.45
2017-11-10T14:16:04.259Z,9.75
2017-11-10T14:18:32.328Z,10.32
2017-11-10T14:21:00.362Z,10.32
2017-11-10T14:23:29.164Z,9.63
2017-11-10T14:25:57.957Z,9.35
2017-11-10T14:28:26.760Z,10.45
2017-11-10T14:30:55.560Z,11.90
2017-11-10T14:33:24.387Z,9.65
2017-11-10T14:35:52.409Z,8.25
2017-11-10T14:38:20.436Z,7.57
2017-11-10T14:40:49.236Z,9.07
2017-11-10T14:43:18.029Z,8.80
2017-11-10T14:45:46.836Z,9.73
2017-11-10T14:48:15.640Z,10.25
2017-11-10T14:50:44.462Z,9.98
2017-11-10T14:53:12.492Z,10.23
2017-11-10T14:55:40.541Z,8.77
2017-11-10T14:58:08.571Z,6.75
2017-11-10T15:00:36.798Z,10.30
2017-11-10T15:03:04.830Z,9.13
2017-11-10T15:05:32.849Z,5.93
2017-11-10T15:08:01.661Z,8.30
2017-11-10T15:10:29.689Z,7.82
2017-11-10T15:12:57.729Z,7.20
2017-11-10T15:15:25.752Z,8.13
2017-11-10T15:17:53.820Z,7.30
2017-11-10T15:20:21.856Z,15.43
2017-11-10T15:22:50.670Z,10.88
2017-11-10T15:25:19.454Z,6.32
2017-11-10T15:27:48.276Z,10.55
2017-11-10T15:30:16.296Z,7.18
2017-11-10T15:32:44.376Z,6.03
2017-11-10T15:35:12.408Z,8.15
2017-11-10T15:40:16.468Z,6.37
2017-11-10T15:42:45.275Z,7.57
2017-11-10T15:45:14.069Z,8.48
2017-11-10T15:47:42.872Z,5.68
2017-11-10T15:50:11.662Z,7.68
2017-11-10T15:52:39.704Z,8.05
2017-11-10T15:55:07.752Z,8.57
2017-11-10T15:57:36.564Z,7.22
2017-11-10T16:00:04.615Z,7.45
2017-11-10T16:02:32.679Z,6.03
2017-11-10T16:05:00.698Z,6.00
2017-11-10T16:07:28.804Z,7.62
2017-11-10T16:09:56.824Z,6.30
2017-11-10T16:12:24.848Z,7.50
2017-11-10T16:14:53.656Z,8.20
2017-11-10T16:17:22.460Z,6.43
2017-11-10T16:19:51.274Z,6.85
2017-11-10T16:22:19.297Z,6.20
2017-11-10T16:24:47.337Z,7.37
2017-11-10T16:27:15.360Z,5.43
2017-11-10T16:29:43.399Z,7.55
2017-11-10T16:32:11.428Z,6.10
2017-11-10T16:34:39.471Z,5.18
2017-11-10T16:37:07.496Z,6.32
2017-11-10T16:39:35.549Z,5.10
2017-11-10T16:42:03.593Z,6.82
2017-11-10T16:44:31.650Z,8.80
2017-11-10T16:46:59.668Z,7.87
2017-11-10T16:49:28.481Z,5.78
2017-11-10T16:51:57.282Z,6.12
2017-11-10T16:54:26.095Z,7.00
2017-11-10T16:56:54.877Z,7.28
2017-11-10T16:59:23.694Z,6.65
2017-11-10T17:01:51.722Z,7.25
2017-11-10T17:04:19.760Z,5.47
2017-11-10T17:06:47.784Z,7.50
2017-11-10T17:09:15.834Z,5.05
2017-11-10T17:11:43.860Z,4.78
2017-11-10T17:14:11.888Z,5.45
2017-11-10T17:16:39.933Z,7.55
2017-11-10T17:19:07.961Z,5.75
2017-11-10T17:21:36.020Z,5.20
2017-11-10T17:24:04.841Z,7.80
2017-11-10T17:26:33.653Z,7.10
2017-11-10T17:29:01.674Z,5.82
2017-11-10T17:31:29.708Z,12.48
2017-11-10T17:33:58.520Z,5.30
2017-11-10T17:36:26.555Z,5.57
2017-11-10T17:38:55.890Z,5.55
2017-11-10T17:41:24.711Z,5.12
2017-11-10T17:43:53.564Z,5.10
2017-11-10T17:46:21.588Z,5.20
2017-11-10T17:48:50.408Z,4.65
2017-11-10T17:51:18.529Z,5.75
2017-11-10T17:53:46.551Z,4.37
2017-11-10T17:56:15.356Z,3.40
2017-11-10T17:58:44.204Z,3.75
2017-11-10T18:01:12.228Z,3.72
2017-11-10T18:03:40.256Z,4.35
2017-11-10T18:06:08.296Z,4.47
2017-11-10T18:08:36.332Z,5.75
2017-11-10T18:11:04.376Z,4.35
2017-11-10T18:13:33.166Z,3.45
2017-11-10T18:16:01.217Z,4.60
2017-11-10T18:18:29.243Z,4.60
2017-11-10T18:20:58.088Z,6.75
2017-11-10T18:23:26.140Z,4.75
2017-11-10T18:25:54.175Z,7.05
2017-11-10T18:28:22.217Z,5.45
2017-11-10T18:30:51.196Z,3.83
2017-11-10T18:33:20.029Z,4.35
2017-11-10T18:35:48.052Z,3.60
2017-11-10T18:38:16.132Z,4.20
2017-11-10T18:40:44.149Z,4.50
2017-11-10T18:43:12.941Z,4.43
2017-11-10T18:45:40.987Z,4.80
2017-11-10T18:48:09.012Z,4.53
2017-11-10T18:50:37.067Z,4.28
2017-11-10T18:53:05.105Z,4.55
2017-11-10T18:55:39.753Z,3.50
2017-11-10T18:58:07.776Z,4.75
2017-11-10T19:00:35.832Z,4.68
2017-11-10T19:03:03.919Z,5.43
2017-11-10T19:05:31.972Z,7.20
2017-11-10T19:08:00.774Z,6.68
2017-11-10T19:10:29.564Z,5.72
2017-11-10T19:12:58.369Z,7.32
2017-11-10T19:15:27.193Z,6.80
2017-11-10T19:17:55.223Z,6.12
2017-11-10T19:20:23.317Z,6.10
2017-11-10T19:22:51.408Z,8.23
2017-11-10T19:25:20.251Z,6.47
2017-11-10T19:27:48.284Z,9.23
2017-11-10T19:30:17.815Z,6.10
2017-11-10T19:32:47.201Z,12.02
2017-11-10T19:35:15.293Z,13.18
2017-11-10T19:37:44.156Z,9.60
2017-11-10T19:40:12.179Z,9.75
2017-11-10T19:42:40.216Z,8.38
2017-11-10T19:45:13.635Z,5.15
2017-11-10T19:47:42.314Z,7.75
2017-11-10T19:50:10.428Z,7.80
2017-11-10T19:52:39.372Z,6.18
2017-11-10T19:55:07.416Z,7.90
2017-11-10T19:57:35.445Z,10.05
2017-11-10T20:00:15.674Z,8.30
2017-11-10T20:02:43.704Z,6.70
2017-11-10T20:05:11.756Z,5.57
2017-11-10T20:07:39.808Z,5.53
2017-11-10T20:10:08.581Z,6.15
2017-11-10T20:12:39.012Z,5.75
2017-11-10T20:15:07.532Z,7.47
2017-11-10T20:17:39.384Z,5.25
2017-11-10T20:20:08.999Z,4.60
2017-11-10T20:22:42.266Z,5.30
2017-11-10T20:25:10.346Z,4.28
2017-11-10T20:27:38.371Z,5.47
2017-11-10T20:30:07.808Z,4.03
2017-11-10T20:32:37.327Z,7.45
2017-11-10T20:35:05.420Z,4.40
2017-11-10T20:37:34.484Z,3.75
2017-11-10T20:40:04.035Z,4.32
2017-11-10T20:42:32.936Z,3.70
2017-11-10T20:45:01.732Z,3.10
2017-11-10T20:47:30.548Z,4.12
2017-11-10T20:49:58.966Z,3.47
2017-11-10T20:52:31.946Z,4.07
2017-11-10T20:55:02.879Z,3.45
2017-11-10T20:57:32.838Z,2.60
2017-11-10T21:00:00.868Z,2.80
2017-11-10T21:02:28.932Z,3.22
2017-11-10T21:04:56.972Z,2.70
2017-11-10T21:07:25.740Z,2.95
2017-11-10T21:09:53.988Z,4.90
2017-11-10T21:12:22.047Z,2.40
2017-11-10T21:14:51.745Z,3.87
2017-11-10T21:17:21.172Z,3.25
2017-11-10T21:19:49.964Z,7.47
2017-11-10T21:22:18.776Z,3.55
2017-11-10T21:24:46.863Z,3.35
2017-11-10T21:27:16.732Z,5.90
2017-11-10T21:29:45.428Z,3.08
2017-11-10T21:32:13.476Z,3.10
2017-11-10T21:34:41.503Z,4.03
2017-11-10T21:37:09.544Z,2.45
2017-11-10T21:39:38.335Z,4.18
2017-11-10T21:42:07.155Z,3.47
2017-11-10T21:44:35.178Z,3.53
2017-11-10T21:47:06.036Z,5.00
2017-11-10T21:49:34.080Z,3.97
2017-11-10T21:52:02.108Z,4.62
2017-11-10T21:54:30.148Z,3.37
2017-11-10T21:56:58.189Z,3.03
2017-11-10T21:59:29.498Z,2.83
2017-11-10T22:01:57.546Z,3.65
2017-11-10T22:04:26.353Z,3.35
2017-11-10T22:06:54.388Z,4.03
2017-11-10T22:09:22.443Z,4.37
2017-11-10T22:11:50.467Z,4.57
2017-11-10T22:14:18.529Z,5.18
2017-11-10T22:16:46.564Z,3.83
2017-11-10T22:19:15.364Z,3.35
2017-11-10T22:21:43.438Z,2.65
2017-11-10T22:24:11.509Z,3.37
2017-11-10T22:26:39.537Z,4.15
2017-11-10T22:29:07.559Z,4.45
2017-11-10T22:31:35.593Z,6.75
2017-11-10T22:34:04.622Z,5.78
2017-11-10T22:36:32.655Z,9.57
2017-11-10T22:39:00.680Z,2.95
2017-11-10T22:41:28.727Z,3.97
2017-11-10T22:43:56.788Z,3.40
2017-11-10T22:46:24.818Z,3.55
2017-11-10T22:48:52.861Z,11.45
2017-11-10T22:51:20.912Z,6.37
2017-11-10T22:53:48.957Z,6.87
2017-11-10T22:56:17.748Z,5.40
2017-11-10T22:58:45.788Z,7.37
2017-11-10T23:01:13.835Z,5.05
2017-11-10T23:03:42.636Z,5.60
2017-11-10T23:06:11.455Z,3.62
2017-11-10T23:08:39.480Z,4.85
2017-11-10T23:11:07.530Z,4.82
2017-11-10T23:13:35.715Z,6.18
2017-11-10T23:16:03.779Z,5.62
2017-11-10T23:18:32.750Z,6.80
2017-11-10T23:21:00.804Z,8.50
2017-11-10T23:23:33.755Z,6.37
2017-11-10T23:26:19.209Z,6.50
2017-11-10T23:28:49.097Z,3.95
2017-11-10T23:33:52.399Z,6.85
2017-11-10T23:36:20.456Z,5.60
2017-11-10T23:38:48.483Z,6.87
2017-11-10T23:41:17.372Z,5.03
2017-11-10T23:43:45.392Z,6.82
2017-11-10T23:46:13.595Z,4.40
2017-11-10T23:48:41.676Z,4.93
2017-11-10T23:51:09.770Z,6.35
2017-11-10T23:53:37.808Z,6.85
2017-11-10T23:56:05.847Z,6.50
2017-11-10T23:58:33.897Z,6.78
